createdAt,value
2022-09-01T00:00:02.903Z,20.60
2022-09-01T00:02:33.479Z,20.60
2022-09-01T00:05:00.551Z,20.60
2022-09-01T00:07:32.138Z,20.50
2022-09-01T00:10:05.095Z,20.50
2022-09-01T00:12:32.095Z,20.60
2022-09-01T00:14:59.444Z,20.60
2022-09-01T00:17:26.627Z,20.60
2022-09-01T00:19:53.523Z,20.60
2022-09-01T00:22:20.467Z,20.50
2022-09-01T00:24:47.866Z,20.50
2022-09-01T00:27:15.076Z,20.50
2022-09-01T00:29:43.901Z,20.50
2022-09-01T00:32:11.642Z,20.50
2022-09-01T00:34:38.689Z,20.40
2022-09-01T00:37:05.536Z,20.40
2022-09-01T00:39:32.586Z,20.40
2022-09-01T00:41:59.540Z,20.40
2022-09-01T00:44:29.511Z,20.40
2022-09-01T00:46:58.626Z,20.30
2022-09-01T00:49:40.924Z,20.30
2022-09-01T00:52:13.616Z,20.30
2022-09-01T00:54:43.730Z,20.30
2022-09-01T00:57:12.745Z,20.20
2022-09-01T00:59:49.577Z,20.20
2022-09-01T01:02:16.812Z,20.20
2022-09-01T01:04:43.820Z,20.10
2022-09-01T01:07:11.992Z,20.10
2022-09-01T01:09:42.047Z,20.00
2022-09-01T01:12:13.741Z,20.10
2022-09-01T01:14:43.522Z,20.00
2022-09-01T01:17:13.139Z,20.00
2022-09-01T01:20:11.554Z,20.00
2022-09-01T01:23:09.148Z,19.90
2022-09-01T01:25:53.838Z,19.90
2022-09-01T01:28:22.556Z,19.80
2022-09-01T01:31:02.108Z,19.80
2022-09-01T01:33:43.017Z,19.80
2022-09-01T01:36:17.347Z,19.80
2022-09-01T01:38:47.803Z,19.70
2022-09-01T01:41:19.693Z,19.70
2022-09-01T01:43:48.363Z,19.70
2022-09-01T01:46:19.095Z,19.60
2022-09-01T01:48:47.222Z,19.50
2022-09-01T01:51:21.240Z,19.50
2022-09-01T01:53:52.634Z,19.50
2022-09-01T01:56:22.790Z,19.40
2022-09-01T01:58:56.257Z,19.30
2022-09-01T02:01:25.399Z,19.30
2022-09-01T02:03:54.701Z,19.20
2022-09-01T02:06:24.566Z,19.20
2022-09-01T02:08:59.082Z,19.20
2022-09-01T02:11:26.712Z,19.20
2022-09-01T02:13:58.392Z,19.10
2022-09-01T02:16:27.902Z,19.10
2022-09-01T02:18:56.480Z,19.10
2022-09-01T02:21:24.621Z,19.10
2022-09-01T02:24:01.357Z,19.10
2022-09-01T02:26:34.676Z,19.10
2022-09-01T02:29:05.814Z,19.10
2022-09-01T02:31:40.191Z,19.10
2022-09-01T02:34:13.831Z,19.00
2022-09-01T02:36:49.300Z,19.00
2022-09-01T02:39:38.480Z,19.00
2022-09-01T02:42:05.687Z,18.90
2022-09-01T02:44:32.965Z,18.90
2022-09-01T02:47:01.830Z,18.90
2022-09-01T02:49:30.008Z,18.90
2022-09-01T02:52:01.299Z,18.90
2022-09-01T02:54:31.908Z,18.90
2022-09-01T02:56:59.382Z,18.90
2022-09-01T02:59:28.893Z,18.90
2022-09-01T03:01:59.264Z,18.80
2022-09-01T03:04:27.483Z,18.80
2022-09-01T03:06:58.648Z,18.80
2022-09-01T03:09:25.590Z,18.90
2022-09-01T03:11:54.568Z,18.80
2022-09-01T03:14:24.365Z,18.80
2022-09-01T03:16:51.575Z,18.70
2022-09-01T03:19:19.243Z,18.70
2022-09-01T03:21:47.390Z,18.60
2022-09-01T03:24:18.581Z,18.60
2022-09-01T03:26:49.970Z,18.60
2022-09-01T03:29:18.925Z,18.60
2022-09-01T03:31:46.535Z,18.50
2022-09-01T03:34:13.650Z,18.50
2022-09-01T03:36:50.564Z,18.50
2022-09-01T03:39:24.525Z,18.40
2022-09-01T03:41:51.805Z,18.40
2022-09-01T03:44:19.505Z,18.40
2022-09-01T03:46:46.469Z,18.40
2022-09-01T03:49:15.856Z,18.40
2022-09-01T03:51:45.128Z,18.40
2022-09-01T03:54:12.877Z,18.40
2022-09-01T03:56:41.324Z,18.40
2022-09-01T03:59:17.156Z,18.40
2022-09-01T04:01:45.972Z,18.30
2022-09-01T04:04:16.659Z,18.30
2022-09-01T04:06:46.644Z,18.30
2022-09-01T04:09:14.554Z,18.30
2022-09-01T04:11:46.997Z,18.30
2022-09-01T04:14:15.826Z,18.30
2022-09-01T04:17:16.249Z,18.20
2022-09-01T04:19:43.656Z,18.20
2022-09-01T04:22:14.600Z,18.20
2022-09-01T04:24:46.312Z,18.20
2022-09-01T04:27:15.829Z,18.20
2022-09-01T04:29:46.504Z,18.20
2022-09-01T04:32:13.558Z,18.20
2022-09-01T04:34:49.791Z,18.20
2022-09-01T04:37:21.239Z,18.20
2022-09-01T04:39:56.482Z,18.20
2022-09-01T04:42:29.851Z,18.20
2022-09-01T04:45:03.182Z,18.20
2022-09-01T04:47:41.917Z,18.10
2022-09-01T04:50:14.929Z,18.10
2022-09-01T04:52:51.222Z,18.10
2022-09-01T04:55:30.408Z,18.10
2022-09-01T04:58:00.765Z,18.10
2022-09-01T05:00:32.289Z,18.10
2022-09-01T05:03:05.745Z,18.10
2022-09-01T05:05:54.026Z,18.10
2022-09-01T05:08:24.551Z,18.10
2022-09-01T05:10:56.618Z,18.10
2022-09-01T05:13:45.084Z,18.10
2022-09-01T05:16:19.421Z,18.20
2022-09-01T05:18:50.411Z,18.20
2022-09-01T05:21:22.358Z,18.10
2022-09-01T05:23:51.814Z,18.20
2022-09-01T05:26:22.096Z,18.10
2022-09-01T05:28:53.968Z,18.10
2022-09-01T05:31:22.432Z,18.10
2022-09-01T05:33:51.845Z,18.10
2022-09-01T05:36:21.561Z,18.10
2022-09-01T05:38:52.351Z,18.10
2022-09-01T05:41:21.057Z,18.10
2022-09-01T05:43:59.319Z,18.10
2022-09-01T05:46:28.188Z,18.10
2022-09-01T05:48:57.292Z,18.10
2022-09-01T05:51:44.021Z,18.10
2022-09-01T05:54:12.055Z,18.20
2022-09-01T05:56:43.731Z,18.20
2022-09-01T05:59:23.530Z,18.20
2022-09-01T06:01:53.353Z,18.20
2022-09-01T06:04:22.886Z,18.20
2022-09-01T06:07:08.569Z,18.20
2022-09-01T06:09:44.981Z,18.30
2022-09-01T06:12:17.924Z,18.20
2022-09-01T06:14:47.153Z,18.20
2022-09-01T06:17:16.678Z,18.20
2022-09-01T06:19:44.930Z,18.20
2022-09-01T06:22:12.210Z,18.30
2022-09-01T06:24:40.870Z,18.30
2022-09-01T06:27:12.667Z,18.30
2022-09-01T06:29:40.023Z,18.40
2022-09-01T06:32:10.346Z,18.50
2022-09-01T06:34:43.550Z,18.50
2022-09-01T06:37:13.318Z,18.60
2022-09-01T06:39:43.921Z,18.70
2022-09-01T06:42:12.850Z,18.70
2022-09-01T06:44:48.807Z,18.80
2022-09-01T06:47:15.792Z,18.90
2022-09-01T06:49:42.965Z,18.90
2022-09-01T06:52:16.252Z,18.90
2022-09-01T06:54:44.188Z,19.00
2022-09-01T06:59:58.442Z,19.10
2022-09-01T07:02:26.907Z,19.10
2022-09-01T07:08:09.352Z,19.20
2022-09-01T07:12:08.100Z,19.20
2022-09-01T07:14:17.207Z,19.30
2022-09-01T07:16:51.749Z,19.30
2022-09-01T07:19:21.168Z,19.30
2022-09-01T07:22:07.703Z,19.40
2022-09-01T07:24:36.646Z,19.50
2022-09-01T07:27:35.664Z,19.60
2022-09-01T07:30:03.458Z,19.70
2022-09-01T07:32:47.662Z,19.80
2022-09-01T07:35:20.154Z,19.90
2022-09-01T07:42:56.886Z,20.00
2022-09-01T07:43:45.947Z,20.20
2022-09-01T07:46:40.327Z,20.30
2022-09-01T07:52:02.096Z,20.50
2022-09-01T07:54:30.398Z,20.70
2022-09-01T07:56:57.774Z,20.80
2022-09-01T07:59:27.852Z,20.90
2022-09-01T08:02:05.747Z,21.00
2022-09-01T08:04:34.322Z,21.10
2022-09-01T08:07:01.726Z,21.30
2022-09-01T08:09:37.724Z,21.40
2022-09-01T08:12:08.360Z,21.50
2022-09-01T08:14:40.520Z,21.60
2022-09-01T08:19:56.838Z,21.90
2022-09-01T08:22:42.382Z,22.10
2022-09-01T08:25:22.932Z,22.20
2022-09-01T08:27:59.712Z,22.30
2022-09-01T08:30:27.872Z,22.50
2022-09-01T08:32:54.729Z,22.60
2022-09-01T08:35:22.474Z,22.70
2022-09-01T08:37:49.402Z,22.90
2022-09-01T08:40:20.514Z,23.00
2022-09-01T08:43:06.862Z,23.10
2022-09-01T08:45:41.217Z,23.20
2022-09-01T08:51:21.208Z,23.50
2022-09-01T08:54:32.261Z,23.60
2022-09-01T08:57:08.944Z,23.70
2022-09-01T09:00:09.918Z,23.80
2022-09-01T09:03:26.141Z,23.90
2022-09-01T09:06:08.512Z,24.00
2022-09-01T09:09:14.156Z,24.10
2022-09-01T09:12:05.403Z,24.20
2022-09-01T09:15:25.516Z,24.40
2022-09-01T09:18:01.253Z,24.60
2022-09-01T09:20:28.841Z,24.80
2022-09-01T09:22:59.301Z,24.90
2022-09-01T09:25:29.611Z,25.10
2022-09-01T09:28:03.544Z,25.10
2022-09-01T09:30:32.443Z,25.30
2022-09-01T09:35:54.360Z,25.50
2022-09-01T09:38:32.825Z,25.60
2022-09-01T09:41:20.548Z,25.70
2022-09-01T09:44:32.806Z,25.90
2022-09-01T09:46:59.718Z,26.10
2022-09-01T09:49:35.167Z,26.20
2022-09-01T09:52:10.639Z,26.30
2022-09-01T09:54:40.443Z,26.50
2022-09-01T09:57:16.250Z,26.60
2022-09-01T10:00:01.021Z,26.60
2022-09-01T10:02:34.531Z,26.80
2022-09-01T10:05:21.061Z,26.80
2022-09-01T10:07:52.610Z,26.90
2022-09-01T10:10:36.579Z,27.00
2022-09-01T10:13:03.677Z,27.10
2022-09-01T10:15:34.180Z,27.20
2022-09-01T10:18:19.982Z,27.30
2022-09-01T10:21:00.213Z,27.40
2022-09-01T10:23:31.070Z,27.50
2022-09-01T10:26:37.780Z,27.60
2022-09-01T10:29:34.817Z,27.80
2022-09-01T10:32:30.397Z,27.80
2022-09-01T10:34:59.380Z,28.00
2022-09-01T10:37:35.546Z,28.00
2022-09-01T10:40:35.257Z,28.10
2022-09-01T10:43:47.284Z,28.20
2022-09-01T10:46:24.768Z,28.40
2022-09-01T10:49:03.327Z,28.50
2022-09-01T10:51:36.373Z,28.50
2022-09-01T10:54:09.696Z,28.50
2022-09-01T10:56:50.744Z,28.60
2022-09-01T10:59:37.297Z,28.70
2022-09-01T11:02:25.843Z,28.60
2022-09-01T11:04:59.611Z,28.80
2022-09-01T11:08:00.455Z,28.90
2022-09-01T11:10:32.004Z,29.10
2022-09-01T11:13:08.227Z,29.20
2022-09-01T11:15:45.507Z,29.30
2022-09-01T11:18:30.713Z,29.40
2022-09-01T11:21:39.147Z,29.50
2022-09-01T11:24:39.294Z,29.60
2022-09-01T11:27:09.298Z,29.60
2022-09-01T11:29:59.664Z,29.70
2022-09-01T11:32:33.899Z,29.80
2022-09-01T11:35:05.235Z,29.90
2022-09-01T11:37:33.506Z,30.00
2022-09-01T11:40:04.427Z,30.10
2022-09-01T11:42:45.870Z,30.20
2022-09-01T11:45:21.600Z,30.30
2022-09-01T11:47:52.829Z,30.40
2022-09-01T11:50:27.342Z,30.40
2022-09-01T11:53:05.418Z,30.50
2022-09-01T11:55:37.152Z,30.60
2022-09-01T11:58:05.117Z,30.70
2022-09-01T12:00:38.604Z,30.80
2022-09-01T12:03:19.998Z,30.90
2022-09-01T12:05:52.109Z,31.00
2022-09-01T12:08:23.901Z,31.00
2022-09-01T12:10:51.547Z,31.10
2022-09-01T12:13:22.068Z,31.10
2022-09-01T12:16:17.354Z,31.10
2022-09-01T12:18:51.470Z,31.20
2022-09-01T12:21:23.168Z,31.30
2022-09-01T12:23:50.569Z,31.40
2022-09-01T12:26:35.581Z,31.40
2022-09-01T12:29:02.660Z,31.40
2022-09-01T12:31:29.634Z,31.50
2022-09-01T12:33:56.933Z,31.50
2022-09-01T12:36:30.355Z,31.60
2022-09-01T12:39:17.297Z,31.70
2022-09-01T12:41:48.553Z,31.80
2022-09-01T12:44:37.750Z,31.80
2022-09-01T12:47:11.504Z,31.80
2022-09-01T12:49:50.410Z,31.90
2022-09-01T12:52:22.066Z,31.90
2022-09-01T12:54:52.704Z,31.90
2022-09-01T12:57:45.196Z,31.90
2022-09-01T13:00:12.529Z,31.90
2022-09-01T13:03:02.858Z,32.10
2022-09-01T13:05:36.135Z,32.10
2022-09-01T13:08:08.777Z,32.20
2022-09-01T13:10:38.196Z,32.20
2022-09-01T13:13:06.987Z,32.30
2022-09-01T13:15:35.798Z,32.30
2022-09-01T13:18:03.392Z,32.20
2022-09-01T13:20:30.674Z,32.30
2022-09-01T13:22:57.883Z,32.40
2022-09-01T13:25:25.114Z,32.50
2022-09-01T13:27:52.993Z,32.40
2022-09-01T13:30:22.520Z,32.40
2022-09-01T13:35:37.165Z,32.50
2022-09-01T13:38:04.188Z,32.50
2022-09-01T13:40:31.783Z,32.40
2022-09-01T13:42:59.019Z,32.40
2022-09-01T13:45:26.109Z,32.50
2022-09-01T13:53:27.365Z,32.80
2022-09-01T13:55:54.282Z,32.80
2022-09-01T13:58:21.231Z,32.90
2022-09-01T14:00:48.854Z,32.90
2022-09-01T14:03:21.882Z,32.80
2022-09-01T14:05:49.836Z,32.80
2022-09-01T14:08:20.044Z,32.70
2022-09-01T14:10:50.805Z,32.80
2022-09-01T14:13:19.110Z,32.80
2022-09-01T14:15:47.140Z,32.90
2022-09-01T14:18:16.234Z,32.90
2022-09-01T14:20:46.405Z,32.80
2022-09-01T14:23:14.944Z,32.90
2022-09-01T14:25:50.568Z,32.90
2022-09-01T14:28:20.119Z,32.90
2022-09-01T14:30:48.423Z,32.80
2022-09-01T14:33:17.816Z,32.90
2022-09-01T14:35:48.030Z,32.90
2022-09-01T14:38:15.198Z,32.90
2022-09-01T14:40:43.840Z,33.00
2022-09-01T14:43:14.231Z,33.00
2022-09-01T14:45:48.388Z,33.00
2022-09-01T14:48:17.326Z,33.10
2022-09-01T14:50:49.018Z,33.20
2022-09-01T14:53:16.024Z,33.10
2022-09-01T14:55:44.074Z,33.20
2022-09-01T14:58:11.197Z,33.20
2022-09-01T15:00:42.081Z,33.20
2022-09-01T15:03:09.851Z,33.20
2022-09-01T15:05:39.940Z,33.00
2022-09-01T15:08:11.956Z,33.00
2022-09-01T15:10:41.596Z,32.90
2022-09-01T15:13:09.319Z,32.90
2022-09-01T15:15:37.723Z,32.80
2022-09-01T15:18:04.551Z,32.80
2022-09-01T15:20:46.542Z,32.90
2022-09-01T15:23:17.098Z,32.90
2022-09-01T15:25:44.440Z,33.00
2022-09-01T15:28:12.088Z,33.00
2022-09-01T15:30:40.091Z,33.00
2022-09-01T15:33:14.691Z,32.90
2022-09-01T15:35:42.708Z,32.90
2022-09-01T15:38:10.396Z,32.80
2022-09-01T15:40:42.162Z,32.70
2022-09-01T15:43:11.744Z,32.60
2022-09-01T15:45:39.212Z,32.60
2022-09-01T15:48:06.702Z,32.50
2022-09-01T15:50:33.719Z,32.50
2022-09-01T15:53:03.608Z,32.40
2022-09-01T15:55:43.878Z,32.40
2022-09-01T15:58:13.220Z,32.30
2022-09-01T16:00:41.451Z,32.30
2022-09-01T16:03:09.411Z,32.30
2022-09-01T16:05:38.427Z,32.30
2022-09-01T16:08:09.499Z,32.40
2022-09-01T16:10:40.033Z,32.30
2022-09-01T16:13:08.244Z,32.30
2022-09-01T16:15:40.171Z,32.30
2022-09-01T16:18:15.122Z,32.20
2022-09-01T16:20:48.694Z,32.20
2022-09-01T16:23:19.120Z,32.10
2022-09-01T16:25:46.664Z,32.00
2022-09-01T16:28:30.199Z,31.90
2022-09-01T16:31:06.790Z,31.80
2022-09-01T16:33:33.974Z,31.70
2022-09-01T16:36:28.828Z,31.60
2022-09-01T16:39:06.421Z,31.50
2022-09-01T16:42:13.457Z,31.50
2022-09-01T16:45:05.848Z,31.40
2022-09-01T16:48:09.474Z,31.30
2022-09-01T16:50:39.082Z,31.30
2022-09-01T16:53:24.295Z,31.20
2022-09-01T16:56:15.062Z,31.10
2022-09-01T16:59:23.337Z,31.00
2022-09-01T17:02:21.577Z,30.90
2022-09-01T17:04:54.128Z,30.70
2022-09-01T17:07:46.037Z,30.60
2022-09-01T17:10:41.187Z,30.50
2022-09-01T17:13:38.764Z,30.40
2022-09-01T17:16:16.205Z,30.30
2022-09-01T17:18:48.470Z,30.20
2022-09-01T17:21:27.264Z,30.10
2022-09-01T17:23:58.206Z,30.00
2022-09-01T17:26:30.074Z,29.90
2022-09-01T17:29:32.735Z,29.80
2022-09-01T17:32:18.639Z,29.70
2022-09-01T17:35:15.771Z,29.60
2022-09-01T17:38:30.998Z,29.60
2022-09-01T17:41:30.221Z,29.50
2022-09-01T17:44:07.163Z,29.40
2022-09-01T17:46:57.409Z,29.40
2022-09-01T17:49:38.169Z,29.30
2022-09-01T17:52:15.045Z,29.30
2022-09-01T17:55:07.206Z,29.20
2022-09-01T17:57:58.937Z,29.10
2022-09-01T18:00:40.637Z,29.10
2022-09-01T18:03:22.806Z,29.10
2022-09-01T18:06:15.375Z,29.00
2022-09-01T18:08:44.846Z,28.90
2022-09-01T18:11:13.531Z,28.80
2022-09-01T18:14:01.369Z,28.80
2022-09-01T18:16:31.060Z,28.70
2022-09-01T18:19:08.082Z,28.60
2022-09-01T18:21:39.329Z,28.60
2022-09-01T18:24:16.083Z,28.50
2022-09-01T18:26:46.980Z,28.30
2022-09-01T18:29:14.003Z,28.30
2022-09-01T18:31:54.180Z,28.20
2022-09-01T18:34:42.887Z,28.10
2022-09-01T18:37:40.041Z,28.00
2022-09-01T18:40:15.084Z,27.90
2022-09-01T18:43:03.572Z,27.80
2022-09-01T18:46:08.289Z,27.70
2022-09-01T18:51:13.427Z,27.50
2022-09-01T18:53:59.052Z,27.50
2022-09-01T18:56:37.772Z,27.40
2022-09-01T18:59:07.710Z,27.40
2022-09-01T19:01:40.972Z,27.30
2022-09-01T19:04:14.493Z,27.30
2022-09-01T19:06:54.114Z,27.20
2022-09-01T19:09:32.033Z,27.20
2022-09-01T19:12:10.755Z,27.10
2022-09-01T19:15:04.580Z,27.10
2022-09-01T19:17:52.619Z,27.00
2022-09-01T19:20:29.820Z,27.00
2022-09-01T19:23:06.422Z,26.90
2022-09-01T19:25:36.748Z,26.80
2022-09-01T19:28:04.377Z,26.70
2022-09-01T19:30:35.520Z,26.60
2022-09-01T19:33:05.185Z,26.50
2022-09-01T19:35:34.396Z,26.50
2022-09-01T19:38:07.286Z,26.40
2022-09-01T19:40:39.420Z,26.40
2022-09-01T19:43:15.722Z,26.30
2022-09-01T19:45:57.014Z,26.30
2022-09-01T19:48:40.479Z,26.20
2022-09-01T19:51:45.254Z,26.10
2022-09-01T19:54:34.013Z,26.10
2022-09-01T19:57:18.376Z,26.00
2022-09-01T20:00:11.604Z,25.90
2022-09-01T20:02:49.274Z,25.80
2022-09-01T20:05:35.849Z,25.70
2022-09-01T20:08:27.658Z,25.70
2022-09-01T20:11:10.329Z,25.60
2022-09-01T20:14:17.469Z,25.50
2022-09-01T20:16:51.215Z,25.50
2022-09-01T20:20:00.441Z,25.50
2022-09-01T20:22:53.601Z,25.40
2022-09-01T20:25:25.826Z,25.30
2022-09-01T20:28:20.663Z,25.30
2022-09-01T20:30:55.306Z,25.20
2022-09-01T20:33:37.147Z,25.20
2022-09-01T20:36:23.124Z,25.10
2022-09-01T20:39:21.443Z,25.00
2022-09-01T20:42:01.527Z,24.90
2022-09-01T20:45:03.861Z,24.80
2022-09-01T20:47:32.362Z,24.70
2022-09-01T20:50:06.472Z,24.60
2022-09-01T20:52:55.476Z,24.60
2022-09-01T20:55:32.593Z,24.50
2022-09-01T20:58:05.255Z,24.40
2022-09-01T21:00:37.096Z,24.40
2022-09-01T21:03:45.717Z,24.30
2022-09-01T21:06:19.876Z,24.30
2022-09-01T21:08:55.591Z,24.20
2022-09-01T21:11:37.180Z,24.20
2022-09-01T21:14:21.429Z,24.10
2022-09-01T21:17:09.683Z,24.10
2022-09-01T21:20:11.410Z,24.00
2022-09-01T21:22:38.733Z,23.90
2022-09-01T21:25:06.172Z,23.80
2022-09-01T21:27:43.143Z,23.80
2022-09-01T21:30:14.069Z,23.70
2022-09-01T21:32:41.718Z,23.80
2022-09-01T21:35:12.271Z,23.70
2022-09-01T21:37:39.425Z,23.70
2022-09-01T21:40:07.470Z,23.60
2022-09-01T21:42:49.277Z,23.60
2022-09-01T21:45:18.835Z,23.60
2022-09-01T21:47:47.716Z,23.60
2022-09-01T21:50:16.391Z,23.50
2022-09-01T21:52:43.561Z,23.50
2022-09-01T21:55:11.745Z,23.40
2022-09-01T21:57:38.554Z,23.40
2022-09-01T22:00:18.113Z,23.40
2022-09-01T22:02:45.997Z,23.30
2022-09-01T22:05:13.620Z,23.30
2022-09-01T22:07:44.754Z,23.20
2022-09-01T22:10:15.421Z,23.10
2022-09-01T22:12:44.076Z,23.10
2022-09-01T22:15:13.667Z,23.00
2022-09-01T22:17:40.593Z,23.00
2022-09-01T22:20:09.656Z,22.90
2022-09-01T22:22:36.911Z,22.90
2022-09-01T22:25:06.265Z,22.80
2022-09-01T22:27:33.244Z,22.80
2022-09-01T22:30:00.113Z,22.80
2022-09-01T22:32:32.408Z,22.70
2022-09-01T22:35:01.497Z,22.70
2022-09-01T22:37:28.684Z,22.70
2022-09-01T22:39:55.720Z,22.70
2022-09-01T22:42:22.526Z,22.60
2022-09-01T22:44:49.306Z,22.60
2022-09-01T22:47:16.221Z,22.60
2022-09-01T22:49:43.194Z,22.60
2022-09-01T22:52:10.056Z,22.60
2022-09-01T22:54:38.142Z,22.50
2022-09-01T22:57:04.986Z,22.50
2022-09-01T22:59:32.020Z,22.40
2022-09-01T23:02:01.170Z,22.40
2022-09-01T23:04:28.080Z,22.40
2022-09-01T23:06:54.893Z,22.30
2022-09-01T23:09:21.739Z,22.30
2022-09-01T23:11:49.116Z,22.30
2022-09-01T23:14:16.003Z,22.20
2022-09-01T23:16:42.853Z,22.20
2022-09-01T23:19:10.154Z,22.20
2022-09-01T23:21:38.403Z,22.20
2022-09-01T23:24:07.206Z,22.10
2022-09-01T23:26:35.181Z,22.10
2022-09-01T23:29:03.452Z,22.10
2022-09-01T23:31:33.479Z,22.00
2022-09-01T23:34:00.520Z,22.00
2022-09-01T23:36:29.199Z,21.90
2022-09-01T23:38:56.832Z,21.90
2022-09-01T23:41:31.059Z,21.90
2022-09-01T23:44:01.598Z,21.80
2022-09-01T23:46:31.305Z,21.80
2022-09-01T23:48:58.377Z,21.80
2022-09-01T23:51:26.268Z,21.80
2022-09-01T23:53:53.266Z,21.80
2022-09-01T23:56:23.303Z,21.80
2022-09-01T23:58:50.144Z,21.80
